Brutus, Michigan
Current Conditions -  °F | °C
As of 4:54 PM on Monday 26 Jan 2015 (Local Time) from KPLN Reporting Station
Clear Clear  
Wind Chill: 11°   Ceiling: Unl
Heat Index: 21°   Visibility: 10mi
Dew Point:   Wind: 9mph
Humidity: 57%   Direction: 100°E
Pressure: 29.96"   Gusts: NA
Location:  45.49°N, 84.78°W
Report Text: KPLN 262154Z AUTO 10008KT 10SM CLR M06/M13 A2996 RMK AO2 SLP166 T10611133
Loading
Personal Weather Stations






























Interactive Weather Map New forecast layout! Learn more

10-Day Weather Forecast

Advertisements
Track Severe Weather on mobile